Denali National Park, AK

6:18 AM AKDT on September 22, 2014 (GMT -0800)
Minchumina | Change Station
CLOSE
Current Station
Airport
Location: Minchumina,
Elevation: 702 ft
Nearby Weather Stations

Elev 702 ft 63.89 °N, 152.30 °W | Updated 2 minutes ago

Partly Cloudy
Partly Cloudy
36 °F
Feels Like 36 °F
N
0
Wind Variable Wind from North
Gusts 7 mph

Today
High -- | Low -- °F
--% Chance of Precip.
Yesterday
High -- | Low -- °F
Precip. -- in
7:47 AM 8:03 PM
Waning Crescent, 3% visible
Pressure 29.68 in
Visibility 10.0 miles
Clouds
Dew Point 27 °F
Humidity 70%
Rainfall 0.00 in
Snow Depth 0 in , 5 in , 2 in
UV Not available.
Pollen Not available.
Air Quality Not available.
Flu Activity Not available.
METAR PAMH 221416Z AUTO 00000KT 10SM 02/M03 A2968 RMK AO1

More Conditions Fewer Conditions

Pressure 29.68 in
Visibility 10.0 miles
Clouds
Dew Point 27 °F
Humidity 70%
Rainfall 0.00 in
Snow Depth 0 in , 5 in , 2 in
UV Not available.
Pollen Not available.
Air Quality Not available.
Flu Activity Not available.
METAR PAMH 221416Z AUTO 00000KT 10SM 02/M03 A2968 RMK AO1

More Conditions Fewer Conditions

10-Day Weather Forecast

Almanac

Astronomy

Sep. 22, 2014 Rise Set
Actual Time 7:47 AM AKDT 8:03 PM AKDT
Civil Twilight 7:00 AM AKDT 8:50 PM AKDT
Nautical Twilight 6:02 AM AKDT 9:47 PM AKDT
Astronomical Twilight 4:57 AM AKDT 10:51 PM AKDT
Moon 6:07 AM AKDT 7:24 PM AKDT
Length of Visible Light 13h 49m
Length of Day
12h 16m
Tomorrow will be 6m 16s shorter.
Waning Crescent, 3% of the Moon is Illuminated
Today
Waning Crescent
Sep 24
New
Oct 1
First Quarter
Oct 8
Full
Oct 15
Last Quarter

Today's Extremes

State Highs State Lows

Community

WunderPhotos

Upload Photos

1,755,444 photos uploaded!

WunderBlogs® & News

By Dr. Jeff Masters
Director of Meteorology, Weather Underground
By Kari Strenfel
Meteorologist, Weather Underground
By Christopher C. Burt
Weather Historian, Weather Underground
September 22, 2014
September 22, 2014
September 22, 2014

Nearby

Snow Depth

Station Depth Elevation
Granite Creek 0 in 1240 ft
Grandview 5 in 1100 ft
Eagle Summit 2 in 3650 ft
Cooper Lake 25 in 1200 ft
Upper Tsaina River 0 in 1750 ft

Earthquake Activity

City Distance Mag. Time & Date
No recent earthquake activity has been reported nearby.
Minimum magnitude displayed is 2.5.

Coastal Water Temperatures

Place Temperature
No Stations Reporting

Nearby Weather Stations